createdAt,value
2018-11-14T00:00:40.053Z,10.67
2018-11-14T00:05:43.426Z,16.97
2018-11-14T00:10:46.652Z,12.13
2018-11-14T00:15:50.111Z,12.63
2018-11-14T00:20:53.378Z,9.70
2018-11-14T00:25:56.640Z,12.77
2018-11-14T00:30:59.793Z,12.50
2018-11-14T00:36:03.069Z,11.50
2018-11-14T00:41:06.580Z,10.27
2018-11-14T00:46:09.749Z,12.70
2018-11-14T00:51:13.182Z,16.43
2018-11-14T00:56:16.612Z,7.50
2018-11-14T01:01:19.837Z,11.97
2018-11-14T01:06:23.054Z,9.50
2018-11-14T01:11:26.260Z,11.90
2018-11-14T01:16:29.436Z,8.93
2018-11-14T01:21:32.633Z,10.80
2018-11-14T01:26:35.813Z,9.07
2018-11-14T01:31:39.003Z,9.37
2018-11-14T01:36:42.197Z,10.77
2018-11-14T01:41:45.366Z,14.30
2018-11-14T01:46:48.597Z,13.33
2018-11-14T01:51:51.764Z,10.30
2018-11-14T01:56:55.001Z,7.80
2018-11-14T02:01:58.210Z,8.33
2018-11-14T02:07:01.401Z,11.00
2018-11-14T02:12:05.209Z,13.43
2018-11-14T02:17:08.414Z,8.13
2018-11-14T02:22:11.637Z,9.60
2018-11-14T02:27:14.863Z,8.20
2018-11-14T02:32:18.484Z,8.97
2018-11-14T02:37:21.875Z,7.73
2018-11-14T02:42:25.024Z,11.10
2018-11-14T02:47:28.220Z,7.60
2018-11-14T02:52:31.407Z,8.60
2018-11-14T02:57:34.604Z,7.13
2018-11-14T03:02:38.145Z,11.00
2018-11-14T03:07:41.759Z,7.07
2018-11-14T03:12:44.954Z,8.00
2018-11-14T03:17:48.129Z,6.23
2018-11-14T03:22:51.336Z,7.47
2018-11-14T03:27:54.819Z,7.90
2018-11-14T03:32:58.375Z,9.90
2018-11-14T03:38:01.713Z,8.47
2018-11-14T03:43:05.180Z,6.10
2018-11-14T03:48:08.588Z,8.30
2018-11-14T03:53:11.966Z,10.40
2018-11-14T03:58:15.333Z,7.20
2018-11-14T04:03:18.534Z,8.47
2018-11-14T04:08:22.032Z,7.90
2018-11-14T04:13:25.451Z,7.23
2018-11-14T04:18:29.443Z,9.83
2018-11-14T04:23:33.336Z,10.60
2018-11-14T04:28:36.666Z,8.97
2018-11-14T04:33:39.965Z,8.07
2018-11-14T04:38:43.270Z,10.03
2018-11-14T04:43:46.455Z,8.70
2018-11-14T04:48:49.671Z,7.90
2018-11-14T04:53:52.939Z,10.53
2018-11-14T04:58:56.193Z,11.33
2018-11-14T05:03:59.458Z,8.33
2018-11-14T05:09:03.260Z,7.33
2018-11-14T05:14:07.406Z,7.00
2018-11-14T05:19:10.734Z,13.30
2018-11-14T05:24:14.052Z,6.53
2018-11-14T05:29:17.448Z,7.80
2018-11-14T05:34:20.767Z,9.27
2018-11-14T05:39:24.084Z,10.23
2018-11-14T05:44:27.636Z,12.63
2018-11-14T05:49:31.122Z,5.60
2018-11-14T05:54:34.488Z,6.20
2018-11-14T05:59:38.150Z,6.37
2018-11-14T06:04:42.233Z,10.10
2018-11-14T06:09:46.135Z,6.77
2018-11-14T06:14:49.549Z,7.77
2018-11-14T06:19:52.838Z,8.50
2018-11-14T06:25:00.785Z,7.53
2018-11-14T06:30:04.671Z,8.03
2018-11-14T06:35:08.129Z,12.27
2018-11-14T06:40:12.313Z,6.03
2018-11-14T06:45:17.207Z,7.17
2018-11-14T06:50:20.515Z,4.83
2018-11-14T06:55:23.829Z,5.60
2018-11-14T07:00:29.369Z,4.23
2018-11-14T07:05:32.908Z,6.67
2018-11-14T07:10:37.125Z,6.00
2018-11-14T07:15:41.154Z,6.30
2018-11-14T07:20:45.159Z,11.43
2018-11-14T07:25:48.451Z,8.23
2018-11-14T07:30:51.940Z,5.30
2018-11-14T07:35:55.591Z,6.30
2018-11-14T07:40:59.829Z,5.97
2018-11-14T07:46:09.696Z,5.73
2018-11-14T07:51:13.273Z,5.53
2018-11-14T07:56:16.688Z,3.90
2018-11-14T08:01:20.601Z,6.07
2018-11-14T08:06:23.919Z,7.77
2018-11-14T08:11:27.214Z,6.13
2018-11-14T08:16:30.522Z,11.03
2018-11-14T08:21:34.051Z,7.00
2018-11-14T08:26:37.267Z,7.90
2018-11-14T08:31:40.481Z,6.93
2018-11-14T08:36:43.715Z,9.63
2018-11-14T08:41:46.970Z,10.87
2018-11-14T08:46:50.233Z,7.00
2018-11-14T08:51:53.518Z,7.13
2018-11-14T08:56:56.944Z,9.70
2018-11-14T09:02:00.196Z,6.87
2018-11-14T09:07:03.452Z,8.40
2018-11-14T09:12:08.724Z,6.87
2018-11-14T09:17:12.335Z,10.40
2018-11-14T09:22:15.674Z,10.60
2018-11-14T09:27:19.737Z,10.37
2018-11-14T09:32:23.014Z,18.70
2018-11-14T09:37:26.400Z,17.50
2018-11-14T09:42:29.752Z,19.27
2018-11-14T09:47:33.016Z,14.43
2018-11-14T09:52:36.325Z,17.33
2018-11-14T09:57:40.292Z,21.77
2018-11-14T10:02:43.895Z,17.20
2018-11-14T10:07:47.446Z,22.30
2018-11-14T10:12:50.746Z,17.57
2018-11-14T10:17:54.206Z,32.30
2018-11-14T10:22:57.408Z,24.20
2018-11-14T10:28:00.814Z,16.70
2018-11-14T10:33:04.026Z,21.23
2018-11-14T10:38:08.373Z,20.40
2018-11-14T10:43:11.653Z,17.63
2018-11-14T10:48:15.226Z,12.00
2018-11-14T10:53:18.489Z,8.30
2018-11-14T10:58:21.790Z,9.93
2018-11-14T11:03:30.206Z,8.80
2018-11-14T11:08:38.909Z,6.40
2018-11-14T11:14:12.750Z,11.17
2018-11-14T11:19:17.313Z,12.03
2018-11-14T11:24:21.677Z,6.20
2018-11-14T11:29:25.124Z,7.10
2018-11-14T11:34:28.373Z,17.90
2018-11-14T11:39:31.919Z,8.73
2018-11-14T11:44:35.276Z,12.30
2018-11-14T11:49:39.598Z,15.13
2018-11-14T11:54:42.908Z,5.53
2018-11-14T11:59:46.262Z,7.40
2018-11-14T12:04:49.730Z,5.87
2018-11-14T12:09:53.039Z,5.10
2018-11-14T12:14:56.299Z,6.63
2018-11-14T12:19:59.602Z,9.50
2018-11-14T12:25:02.904Z,6.37
2018-11-14T12:30:09.805Z,6.60
2018-11-14T12:35:15.523Z,6.27
2018-11-14T12:40:18.919Z,5.20
2018-11-14T12:45:22.165Z,4.33
2018-11-14T12:50:25.429Z,9.30
2018-11-14T12:55:28.777Z,4.43
2018-11-14T13:00:32.533Z,5.40
2018-11-14T13:05:35.947Z,5.00
2018-11-14T13:10:39.243Z,4.40
2018-11-14T13:15:42.747Z,5.30
2018-11-14T13:20:46.332Z,4.00
2018-11-14T13:25:50.807Z,4.30
2018-11-14T13:30:55.665Z,4.80
2018-11-14T13:35:58.911Z,5.97
2018-11-14T13:41:02.193Z,5.10
2018-11-14T13:46:05.416Z,6.73
2018-11-14T13:51:08.868Z,4.37
2018-11-14T13:56:12.028Z,7.20
2018-11-14T14:01:15.342Z,3.30
2018-11-14T14:06:19.200Z,5.10
2018-11-14T14:11:22.531Z,4.17
2018-11-14T14:16:26.385Z,4.80
2018-11-14T14:21:29.578Z,5.17
2018-11-14T14:26:33.018Z,4.20
2018-11-14T14:31:36.753Z,4.93
2018-11-14T14:36:40.941Z,6.43
2018-11-14T14:41:44.253Z,8.90
2018-11-14T14:46:47.665Z,6.23
2018-11-14T14:51:50.986Z,9.40
2018-11-14T14:56:54.300Z,5.43
2018-11-14T15:01:57.790Z,5.63
2018-11-14T15:07:01.592Z,6.07
2018-11-14T15:12:05.251Z,5.63
2018-11-14T15:17:08.568Z,5.10
2018-11-14T15:22:11.836Z,6.60
2018-11-14T15:27:15.407Z,3.80
2018-11-14T15:32:18.711Z,5.77
2018-11-14T15:37:21.962Z,4.83
2018-11-14T15:42:25.271Z,5.83
2018-11-14T15:47:28.716Z,4.73
2018-11-14T15:52:31.990Z,5.83
2018-11-14T15:57:35.446Z,4.43
2018-11-14T16:02:39.771Z,4.80
2018-11-14T16:07:44.244Z,4.40
2018-11-14T16:12:47.499Z,9.93
2018-11-14T16:17:51.102Z,5.40
2018-11-14T16:22:54.725Z,5.73
2018-11-14T16:27:59.339Z,3.30
2018-11-14T16:33:04.147Z,8.73
2018-11-14T16:38:07.943Z,4.03
2018-11-14T16:43:11.173Z,3.90
2018-11-14T16:48:14.555Z,3.50
2018-11-14T16:53:17.846Z,4.83
2018-11-14T16:58:21.579Z,5.87
2018-11-14T17:03:24.950Z,3.10
2018-11-14T17:08:28.319Z,3.83
2018-11-14T17:13:31.539Z,4.10
2018-11-14T17:18:34.839Z,4.13
2018-11-14T17:23:38.264Z,6.10
2018-11-14T17:28:41.563Z,10.43
2018-11-14T17:33:45.149Z,6.83
2018-11-14T17:38:48.521Z,5.60
2018-11-14T17:43:51.781Z,4.90
2018-11-14T17:48:55.165Z,3.20
2018-11-14T17:53:58.857Z,3.87
2018-11-14T17:59:02.160Z,3.87
2018-11-14T18:04:05.521Z,3.40
2018-11-14T18:09:10.423Z,4.40
2018-11-14T18:14:13.747Z,5.40
2018-11-14T18:19:17.082Z,5.07
2018-11-14T18:24:20.601Z,5.77
2018-11-14T18:29:23.868Z,3.90
2018-11-14T18:34:27.121Z,5.20
2018-11-14T18:39:30.510Z,4.87
2018-11-14T18:44:33.793Z,4.80
2018-11-14T18:49:37.276Z,3.80
2018-11-14T18:54:40.799Z,6.03
2018-11-14T18:59:44.185Z,4.00
2018-11-14T19:04:47.409Z,3.50
2018-11-14T19:09:50.914Z,4.30
2018-11-14T19:14:54.189Z,4.90
2018-11-14T19:19:57.609Z,9.80
2018-11-14T19:25:01.131Z,4.60
2018-11-14T19:30:06.219Z,6.27
2018-11-14T19:35:11.073Z,5.60
2018-11-14T19:40:21.577Z,4.10
2018-11-14T19:45:26.489Z,5.77
2018-11-14T19:50:29.882Z,5.60
2018-11-14T19:55:34.127Z,4.13
2018-11-14T20:00:38.655Z,5.90
2018-11-14T20:05:42.096Z,5.10
2018-11-14T20:10:45.508Z,6.07
2018-11-14T20:15:49.438Z,5.60
2018-11-14T20:20:52.786Z,6.90
2018-11-14T20:25:56.158Z,4.70
2018-11-14T20:30:59.704Z,3.93
2018-11-14T20:36:03.009Z,9.40
2018-11-14T20:41:06.298Z,4.20
2018-11-14T20:46:09.559Z,6.50
2018-11-14T20:51:13.146Z,6.70
2018-11-14T20:56:16.424Z,6.20
2018-11-14T21:01:19.713Z,4.00
2018-11-14T21:06:23.189Z,7.77
2018-11-14T21:11:26.571Z,5.40
2018-11-14T21:16:29.869Z,5.43
2018-11-14T21:21:33.623Z,3.93
2018-11-14T21:26:37.213Z,5.13
2018-11-14T21:31:40.471Z,4.07
2018-11-14T21:36:43.776Z,7.20
2018-11-14T21:41:47.078Z,4.73
2018-11-14T21:46:50.350Z,6.90
2018-11-14T21:51:53.674Z,5.53
2018-11-14T21:56:57.475Z,5.40
2018-11-14T22:02:00.650Z,4.40
2018-11-14T22:07:04.886Z,5.47
2018-11-14T22:12:08.148Z,6.23
2018-11-14T22:17:11.906Z,5.00
2018-11-14T22:22:15.119Z,6.63
2018-11-14T22:27:18.489Z,4.97
2018-11-14T22:32:21.837Z,3.10
2018-11-14T22:37:25.456Z,6.23
2018-11-14T22:42:28.758Z,5.67
2018-11-14T22:47:31.978Z,5.93
2018-11-14T22:52:35.491Z,5.77
2018-11-14T22:57:38.696Z,6.83
2018-11-14T23:02:41.905Z,13.43
2018-11-14T23:07:45.375Z,4.97
2018-11-14T23:12:48.940Z,4.90
2018-11-14T23:17:52.276Z,7.33
2018-11-14T23:22:55.827Z,9.03
2018-11-14T23:27:59.027Z,4.90
2018-11-14T23:33:02.598Z,6.43
2018-11-14T23:38:06.644Z,4.80
2018-11-14T23:43:10.338Z,4.57
2018-11-14T23:48:13.561Z,2.90
2018-11-14T23:53:16.974Z,6.23
2018-11-14T23:58:20.383Z,4.63
